createdAt,value
2023-02-26T00:01:41.765Z,0.13
2023-02-26T00:04:11.121Z,0.08
2023-02-26T00:06:53.533Z,0.09
2023-02-26T00:09:25.057Z,0.05
2023-02-26T00:11:54.724Z,0.05
2023-02-26T00:14:23.126Z,-0.03
2023-02-26T00:16:56.870Z,-0.07
2023-02-26T00:19:25.028Z,-0.12
2023-02-26T00:21:53.373Z,-0.01
2023-02-26T00:24:21.157Z,0.02
2023-02-26T00:26:49.019Z,0.08
2023-02-26T00:29:18.972Z,0.05
2023-02-26T00:31:47.319Z,-0.09
2023-02-26T00:34:15.857Z,-0.06
2023-02-26T00:36:51.776Z,-0.01
2023-02-26T00:39:36.636Z,0.02
2023-02-26T00:42:05.034Z,-0.13
2023-02-26T00:44:35.754Z,-0.05
2023-02-26T00:47:10.865Z,-0.10
2023-02-26T00:49:51.162Z,-0.01
2023-02-26T00:52:29.177Z,-0.02
2023-02-26T00:54:56.988Z,-0.02
2023-02-26T00:57:24.828Z,0.06
2023-02-26T00:59:53.996Z,0.09
2023-02-26T01:02:22.020Z,0.09
2023-02-26T01:04:50.454Z,0.07
2023-02-26T01:07:23.556Z,0.15
2023-02-26T01:09:52.248Z,0.09
2023-02-26T01:12:20.447Z,0.14
2023-02-26T01:14:50.430Z,0.07
2023-02-26T01:17:24.833Z,-0.16
2023-02-26T01:19:55.440Z,-0.19
2023-02-26T01:22:29.559Z,-0.09
2023-02-26T01:25:02.701Z,-0.01
2023-02-26T01:27:31.183Z,0.02
2023-02-26T01:30:00.102Z,0.01
2023-02-26T01:32:40.761Z,-0.06
2023-02-26T01:35:16.163Z,-0.01
2023-02-26T01:37:52.712Z,-0.03
2023-02-26T01:40:44.301Z,-0.05
2023-02-26T01:43:18.544Z,-0.07
2023-02-26T01:46:04.001Z,-0.15
2023-02-26T01:48:38.577Z,-0.08
2023-02-26T01:51:06.848Z,-0.14
2023-02-26T01:53:34.652Z,-0.30
2023-02-26T01:56:06.381Z,-0.28
2023-02-26T01:58:36.890Z,-0.38
2023-02-26T02:01:05.375Z,-0.32
2023-02-26T02:03:38.292Z,-0.48
2023-02-26T02:06:09.256Z,-0.39
2023-02-26T02:08:38.985Z,-0.32
2023-02-26T02:11:12.293Z,-0.53
2023-02-26T02:13:56.917Z,-0.61
2023-02-26T02:16:35.785Z,-0.57
2023-02-26T02:19:19.647Z,-0.68
2023-02-26T02:22:03.325Z,-0.71
2023-02-26T02:24:40.010Z,-0.62
2023-02-26T02:27:16.497Z,-0.63
2023-02-26T02:30:18.184Z,-0.93
2023-02-26T02:32:50.578Z,-0.97
2023-02-26T02:35:24.132Z,-0.96
2023-02-26T02:37:57.550Z,-0.87
2023-02-26T02:40:29.461Z,-0.88
2023-02-26T02:43:01.955Z,-0.86
2023-02-26T02:45:39.331Z,-0.85
2023-02-26T02:48:13.380Z,-0.77
2023-02-26T02:50:46.904Z,-0.77
2023-02-26T02:53:19.725Z,-0.96
2023-02-26T02:55:52.604Z,-0.87
2023-02-26T02:58:24.673Z,-0.87
2023-02-26T03:00:57.779Z,-0.93
2023-02-26T03:03:32.962Z,-0.93
2023-02-26T03:06:01.053Z,-0.94
2023-02-26T03:08:32.358Z,-0.89
2023-02-26T03:11:00.092Z,-0.91
2023-02-26T03:13:28.213Z,-0.90
2023-02-26T03:16:20.097Z,-0.88
2023-02-26T03:19:05.854Z,-1.10
2023-02-26T03:21:45.454Z,-1.12
2023-02-26T03:24:26.227Z,-1.03
2023-02-26T03:26:59.483Z,-0.98
2023-02-26T03:29:36.554Z,-0.95
2023-02-26T03:32:08.416Z,-0.90
2023-02-26T03:34:42.437Z,-0.91
2023-02-26T03:37:21.212Z,-0.92
2023-02-26T03:39:53.808Z,-0.97
2023-02-26T03:42:25.556Z,-0.94
2023-02-26T03:45:04.801Z,-1.06
2023-02-26T03:47:36.077Z,-1.18
2023-02-26T03:50:09.502Z,-1.15
2023-02-26T03:52:49.786Z,-1.26
2023-02-26T03:55:42.370Z,-1.13
2023-02-26T03:58:46.539Z,-1.11
2023-02-26T04:01:34.208Z,-1.11
2023-02-26T04:04:06.993Z,-1.26
2023-02-26T04:06:36.747Z,-1.15
2023-02-26T04:09:07.661Z,-1.11
2023-02-26T04:11:39.297Z,-1.16
2023-02-26T04:14:07.488Z,-1.14
2023-02-26T04:16:39.990Z,-1.10
2023-02-26T04:19:07.946Z,-1.13
2023-02-26T04:21:37.491Z,-1.35
2023-02-26T04:24:07.150Z,-1.40
2023-02-26T04:26:36.252Z,-1.43
2023-02-26T04:29:04.080Z,-1.42
2023-02-26T04:31:32.049Z,-1.40
2023-02-26T04:34:00.576Z,-1.37
2023-02-26T04:36:28.549Z,-1.39
2023-02-26T04:39:00.431Z,-1.46
2023-02-26T04:41:28.512Z,-1.34
2023-02-26T04:43:56.418Z,-1.38
2023-02-26T04:46:30.175Z,-1.35
2023-02-26T04:48:58.594Z,-1.35
2023-02-26T04:51:26.510Z,-1.39
2023-02-26T04:53:54.329Z,-1.57
2023-02-26T04:56:23.922Z,-1.67
2023-02-26T04:58:51.897Z,-1.61
2023-02-26T05:01:25.513Z,-1.58
2023-02-26T05:03:53.431Z,-1.63
2023-02-26T05:06:21.818Z,-1.67
2023-02-26T05:08:49.667Z,-1.60
2023-02-26T05:11:18.671Z,-1.72
2023-02-26T05:13:52.555Z,-1.74
2023-02-26T05:16:20.416Z,-1.90
2023-02-26T05:18:48.274Z,-1.85
2023-02-26T05:21:16.056Z,-1.81
2023-02-26T05:23:43.842Z,-1.80
2023-02-26T05:26:11.643Z,-1.81
2023-02-26T05:28:39.632Z,-1.91
2023-02-26T05:31:09.089Z,-1.89
2023-02-26T05:33:36.880Z,-1.93
2023-02-26T05:36:04.878Z,-1.93
2023-02-26T05:38:32.877Z,-1.88
2023-02-26T05:41:00.960Z,-2.05
2023-02-26T05:43:29.028Z,-2.00
2023-02-26T05:45:56.836Z,-2.14
2023-02-26T05:48:26.085Z,-2.17
2023-02-26T05:50:53.866Z,-2.24
2023-02-26T05:53:21.634Z,-2.23
2023-02-26T05:55:50.413Z,-2.22
2023-02-26T05:58:18.213Z,-2.14
2023-02-26T06:00:46.056Z,-2.20
2023-02-26T06:03:13.927Z,-2.24
2023-02-26T06:05:43.101Z,-2.22
2023-02-26T06:08:12.105Z,-2.25
2023-02-26T06:10:39.947Z,-2.25
2023-02-26T06:13:07.836Z,-2.21
2023-02-26T06:15:36.030Z,-2.26
2023-02-26T06:18:03.857Z,-2.27
2023-02-26T06:20:31.623Z,-2.25
2023-02-26T06:23:00.817Z,-2.17
2023-02-26T06:25:28.574Z,-2.25
2023-02-26T06:27:56.359Z,-2.22
2023-02-26T06:30:24.757Z,-2.10
2023-02-26T06:32:52.678Z,-2.22
2023-02-26T06:35:20.509Z,-2.30
2023-02-26T06:37:48.288Z,-2.28
2023-02-26T06:40:18.277Z,-2.22
2023-02-26T06:42:46.054Z,-2.02
2023-02-26T06:45:13.923Z,-2.03
2023-02-26T06:47:41.824Z,-2.02
2023-02-26T06:50:11.092Z,-2.01
2023-02-26T06:52:38.853Z,-1.94
2023-02-26T06:55:07.485Z,-1.90
2023-02-26T06:57:36.693Z,-1.85
2023-02-26T07:00:06.045Z,-1.93
2023-02-26T07:02:34.215Z,-1.94
2023-02-26T07:05:02.137Z,-1.88
2023-02-26T07:07:29.926Z,-1.83
2023-02-26T07:09:57.772Z,-1.80
2023-02-26T07:12:25.514Z,-1.83
2023-02-26T07:14:54.672Z,-1.76
2023-02-26T07:17:22.687Z,-1.62
2023-02-26T07:19:52.597Z,-1.63
2023-02-26T07:22:22.217Z,-1.67
2023-02-26T07:24:51.289Z,-1.73
2023-02-26T07:27:19.198Z,-1.62
2023-02-26T07:29:46.954Z,-1.52
2023-02-26T07:32:16.082Z,-1.55
2023-02-26T07:34:43.994Z,-1.55
2023-02-26T07:37:11.755Z,-1.47
2023-02-26T07:39:39.565Z,-1.62
2023-02-26T07:42:07.365Z,-1.48
2023-02-26T07:44:35.134Z,-1.47
2023-02-26T07:47:03.051Z,-1.43
2023-02-26T07:49:34.022Z,-1.34
2023-02-26T07:52:02.583Z,-1.41
2023-02-26T07:54:30.355Z,-1.42
2023-02-26T07:56:58.204Z,-1.25
2023-02-26T07:59:25.932Z,-1.13
2023-02-26T08:01:53.696Z,-1.10
2023-02-26T08:04:21.519Z,-1.00
2023-02-26T08:06:50.676Z,-0.87
2023-02-26T08:09:19.054Z,-0.88
2023-02-26T08:11:47.828Z,-0.75
2023-02-26T08:14:19.962Z,-0.74
2023-02-26T08:16:47.767Z,-0.73
2023-02-26T08:19:15.592Z,-0.63
2023-02-26T08:21:43.322Z,-0.64
2023-02-26T08:24:13.616Z,-0.58
2023-02-26T08:26:41.456Z,-0.62
2023-02-26T08:29:09.632Z,-0.62
2023-02-26T08:31:37.616Z,-0.54
2023-02-26T08:34:05.587Z,-0.77
2023-02-26T08:36:33.624Z,-0.58
2023-02-26T08:39:01.976Z,-0.71
2023-02-26T08:41:32.374Z,-0.63
2023-02-26T08:44:01.217Z,-0.65
2023-02-26T08:46:29.833Z,-0.59
2023-02-26T08:48:57.997Z,-0.46
2023-02-26T08:51:26.367Z,-0.42
2023-02-26T08:53:54.250Z,-0.35
2023-02-26T08:56:22.082Z,-0.24
2023-02-26T08:58:51.186Z,-0.16
2023-02-26T09:01:18.987Z,-0.24
2023-02-26T09:03:46.768Z,-0.17
2023-02-26T09:06:15.819Z,-0.18
2023-02-26T09:08:43.601Z,-0.36
2023-02-26T09:11:11.415Z,-0.30
2023-02-26T09:13:39.431Z,-0.29
2023-02-26T09:16:09.163Z,-0.30
2023-02-26T09:18:37.231Z,-0.38
2023-02-26T09:21:05.538Z,-0.40
2023-02-26T09:23:33.287Z,-0.32
2023-02-26T09:26:01.419Z,-0.23
2023-02-26T09:28:29.235Z,-0.19
2023-02-26T09:30:57.406Z,-0.21
2023-02-26T09:33:26.726Z,-0.11
2023-02-26T09:35:54.546Z,-0.09
2023-02-26T09:38:22.278Z,-0.09
2023-02-26T09:40:54.144Z,0.04
2023-02-26T09:43:53.061Z,0.04
2023-02-26T09:46:30.423Z,0.05
2023-02-26T09:49:08.853Z,-0.06
2023-02-26T09:51:38.546Z,-0.07
2023-02-26T09:54:17.125Z,-0.04
2023-02-26T09:56:46.396Z,0.03
2023-02-26T09:59:14.244Z,-0.12
2023-02-26T10:01:49.961Z,-0.12
2023-02-26T10:04:26.764Z,-0.24
2023-02-26T10:07:16.334Z,-0.31
2023-02-26T10:09:55.090Z,-0.23
2023-02-26T10:12:25.957Z,-0.13
2023-02-26T10:14:59.677Z,-0.15
2023-02-26T10:17:34.497Z,-0.10
2023-02-26T10:20:11.412Z,-0.03
2023-02-26T10:22:47.159Z,0.03
2023-02-26T10:25:23.577Z,0.01
2023-02-26T10:28:00.269Z,-0.01
2023-02-26T10:30:36.139Z,0.05
2023-02-26T10:33:14.204Z,-0.02
2023-02-26T10:35:52.085Z,0.09
2023-02-26T10:38:24.515Z,0.16
2023-02-26T10:40:57.186Z,0.19
2023-02-26T10:43:30.851Z,0.18
2023-02-26T10:46:11.660Z,0.22
2023-02-26T10:49:00.494Z,0.22
2023-02-26T10:51:35.557Z,0.31
2023-02-26T10:54:11.746Z,0.34
2023-02-26T10:56:39.454Z,0.40
2023-02-26T10:59:07.282Z,0.42
2023-02-26T11:01:35.319Z,0.37
2023-02-26T11:04:06.738Z,0.55
2023-02-26T11:06:40.608Z,0.46
2023-02-26T11:09:21.185Z,0.50
2023-02-26T11:11:53.131Z,0.63
2023-02-26T11:14:21.914Z,0.58
2023-02-26T11:16:53.761Z,0.65
2023-02-26T11:19:27.689Z,0.68
2023-02-26T11:21:57.433Z,0.62
2023-02-26T11:24:32.044Z,0.73
2023-02-26T11:27:03.971Z,0.86
2023-02-26T11:29:39.108Z,0.89
2023-02-26T11:32:08.099Z,0.95
2023-02-26T11:34:36.580Z,0.89
2023-02-26T11:37:06.820Z,0.93
2023-02-26T11:39:37.202Z,1.06
2023-02-26T11:42:08.609Z,1.20
2023-02-26T11:44:39.735Z,1.41
2023-02-26T11:47:12.793Z,1.40
2023-02-26T11:49:44.368Z,1.48
2023-02-26T11:52:23.460Z,1.31
2023-02-26T11:54:55.224Z,1.33
2023-02-26T11:57:27.043Z,1.22
2023-02-26T11:59:56.698Z,1.20
2023-02-26T12:02:27.865Z,1.14
2023-02-26T12:05:03.540Z,1.12
2023-02-26T12:07:32.968Z,1.12
2023-02-26T12:10:00.862Z,1.24
2023-02-26T12:12:50.812Z,1.09
2023-02-26T12:15:32.992Z,1.01
2023-02-26T12:18:30.237Z,1.05
2023-02-26T12:21:15.214Z,1.26
2023-02-26T12:24:07.219Z,1.36
2023-02-26T12:26:38.547Z,1.36
2023-02-26T12:29:53.974Z,1.36
2023-02-26T12:32:34.595Z,1.49
2023-02-26T12:35:29.264Z,1.61
2023-02-26T12:38:18.172Z,1.68
2023-02-26T12:41:09.641Z,1.63
2023-02-26T12:43:46.299Z,1.66
2023-02-26T12:46:25.406Z,1.53
2023-02-26T12:49:13.045Z,1.50
2023-02-26T12:52:02.543Z,1.45
2023-02-26T12:55:00.602Z,1.45
2023-02-26T12:58:07.084Z,1.37
2023-02-26T13:00:51.223Z,1.47
2023-02-26T13:03:45.843Z,1.52
2023-02-26T13:06:46.929Z,1.59
2023-02-26T13:09:26.318Z,1.72
2023-02-26T13:12:04.956Z,1.69
2023-02-26T13:14:46.475Z,1.74
2023-02-26T13:17:24.649Z,1.90
2023-02-26T13:19:56.426Z,2.02
2023-02-26T13:22:29.097Z,2.20
2023-02-26T13:25:01.302Z,2.18
2023-02-26T13:27:34.739Z,2.36
2023-02-26T13:30:18.322Z,2.37
2023-02-26T13:32:48.858Z,2.27
2023-02-26T13:35:23.354Z,2.35
2023-02-26T13:37:54.162Z,2.39
2023-02-26T13:40:51.995Z,2.25
2023-02-26T13:43:46.618Z,2.09
2023-02-26T13:46:30.799Z,1.85
2023-02-26T13:49:06.577Z,1.69
2023-02-26T13:51:37.885Z,1.67
2023-02-26T13:54:10.114Z,1.84
2023-02-26T13:56:49.975Z,1.80
2023-02-26T13:59:36.330Z,1.82
2023-02-26T14:02:36.181Z,1.92
2023-02-26T14:05:11.176Z,2.18
2023-02-26T14:07:49.295Z,2.14
2023-02-26T14:10:25.969Z,2.01
2023-02-26T14:13:05.089Z,1.98
2023-02-26T14:15:43.416Z,1.99
2023-02-26T14:18:30.762Z,1.82
2023-02-26T14:21:29.598Z,1.93
2023-02-26T14:23:59.094Z,1.92
2023-02-26T14:26:29.944Z,1.95
2023-02-26T14:29:08.044Z,1.99
2023-02-26T14:31:55.261Z,2.00
2023-02-26T14:34:26.397Z,2.06
2023-02-26T14:36:57.318Z,2.01
2023-02-26T14:39:36.895Z,2.00
2023-02-26T14:42:08.012Z,2.11
2023-02-26T14:44:42.574Z,2.13
2023-02-26T14:47:11.733Z,2.23
2023-02-26T14:49:43.101Z,2.13
2023-02-26T14:52:34.159Z,2.13
2023-02-26T14:55:19.866Z,2.09
2023-02-26T14:57:59.772Z,2.09
2023-02-26T15:00:35.055Z,2.11
2023-02-26T15:03:34.421Z,2.02
2023-02-26T15:06:19.401Z,2.07
2023-02-26T15:09:03.186Z,1.99
2023-02-26T15:11:53.578Z,2.03
2023-02-26T15:14:47.351Z,2.15
2023-02-26T15:17:27.765Z,2.09
2023-02-26T15:20:06.734Z,2.19
2023-02-26T15:22:52.520Z,2.18
2023-02-26T15:25:30.423Z,2.20
2023-02-26T15:27:58.560Z,2.20
2023-02-26T15:30:26.997Z,2.23
2023-02-26T15:32:58.926Z,2.21
2023-02-26T15:35:30.425Z,2.29
2023-02-26T15:38:04.117Z,2.34
2023-02-26T15:40:34.893Z,2.40
2023-02-26T15:43:04.004Z,2.41
2023-02-26T15:45:36.032Z,2.15
2023-02-26T15:48:07.990Z,2.01
2023-02-26T15:50:41.725Z,1.87
2023-02-26T15:53:18.105Z,1.75
2023-02-26T15:55:50.926Z,1.71
2023-02-26T15:58:23.181Z,1.50
2023-02-26T16:00:55.683Z,1.53
2023-02-26T16:03:28.254Z,1.46
2023-02-26T16:05:56.756Z,1.39
2023-02-26T16:08:26.950Z,1.28
2023-02-26T16:10:59.861Z,1.29
2023-02-26T16:13:32.945Z,1.26
2023-02-26T16:16:04.072Z,1.28
2023-02-26T16:18:33.773Z,1.20
2023-02-26T16:21:05.120Z,1.22
2023-02-26T16:25:56.598Z,0.94
2023-02-26T16:28:29.168Z,0.75
2023-02-26T16:31:00.544Z,0.59
2023-02-26T16:33:28.941Z,0.58
2023-02-26T16:36:04.175Z,0.54
2023-02-26T16:38:34.379Z,0.68
2023-02-26T16:41:11.064Z,0.83
2023-02-26T16:43:52.367Z,0.79
2023-02-26T16:46:27.913Z,0.81
2023-02-26T16:48:59.023Z,0.72
2023-02-26T16:51:33.724Z,0.70
2023-02-26T16:54:07.589Z,0.60
2023-02-26T16:56:43.184Z,0.55
2023-02-26T16:59:16.110Z,0.45
2023-02-26T17:01:51.272Z,0.30
2023-02-26T17:04:24.146Z,0.16
2023-02-26T17:06:53.212Z,0.07
2023-02-26T17:09:44.240Z,0.01
2023-02-26T17:12:16.373Z,0.05
2023-02-26T17:14:49.911Z,0.10
2023-02-26T17:17:18.171Z,-0.01
2023-02-26T17:19:45.923Z,-0.06
2023-02-26T17:22:16.800Z,-0.07
2023-02-26T17:25:17.711Z,-0.17
2023-02-26T17:27:47.899Z,-0.23
2023-02-26T17:30:20.076Z,-0.26
2023-02-26T17:32:48.168Z,-0.38
2023-02-26T17:35:17.040Z,-0.46
2023-02-26T17:37:46.912Z,-0.56
2023-02-26T17:40:21.567Z,-0.62
2023-02-26T17:42:51.918Z,-0.65
2023-02-26T17:45:21.116Z,-0.70
2023-02-26T17:47:50.134Z,-0.79
2023-02-26T17:50:31.815Z,-0.80
2023-02-26T17:52:59.568Z,-0.82
2023-02-26T17:55:27.519Z,-0.84
2023-02-26T17:57:57.376Z,-0.87
2023-02-26T18:00:25.726Z,-0.89
2023-02-26T18:02:53.723Z,-0.88
2023-02-26T18:05:21.639Z,-0.91
2023-02-26T18:07:50.095Z,-0.98
2023-02-26T18:10:20.444Z,-0.94
2023-02-26T18:12:48.815Z,-0.98
2023-02-26T18:15:18.237Z,-0.98
2023-02-26T18:17:45.975Z,-1.00
2023-02-26T18:20:22.318Z,-0.93
2023-02-26T18:22:50.468Z,-0.91
2023-02-26T18:25:18.853Z,-0.92
2023-02-26T18:27:50.965Z,-0.97
2023-02-26T18:30:25.357Z,-0.96
2023-02-26T18:32:53.205Z,-0.88
2023-02-26T18:35:21.075Z,-0.85
2023-02-26T18:37:48.911Z,-0.88
2023-02-26T18:40:18.617Z,-0.82
2023-02-26T18:42:46.332Z,-0.79
2023-02-26T18:45:14.058Z,-0.78
2023-02-26T18:47:44.643Z,-0.77
2023-02-26T18:50:14.119Z,-0.82
2023-02-26T18:52:43.325Z,-0.77
2023-02-26T18:55:12.061Z,-0.77
2023-02-26T18:57:40.355Z,-0.81
2023-02-26T19:00:13.832Z,-0.73
2023-02-26T19:02:44.275Z,-0.74
2023-02-26T19:05:12.813Z,-0.70
2023-02-26T19:07:42.548Z,-0.68
2023-02-26T19:10:14.664Z,-0.62
2023-02-26T19:12:42.514Z,-0.55
2023-02-26T19:15:12.643Z,-0.49
2023-02-26T19:17:41.018Z,-0.52
2023-02-26T19:20:11.705Z,-0.52
2023-02-26T19:22:39.824Z,-0.54
2023-02-26T19:25:08.675Z,-0.61
2023-02-26T19:27:36.676Z,-0.65
2023-02-26T19:30:04.886Z,-0.78
2023-02-26T19:32:32.843Z,-0.69
2023-02-26T19:35:00.784Z,-0.75
2023-02-26T19:37:29.953Z,-0.75
2023-02-26T19:39:57.942Z,-0.82
2023-02-26T19:42:28.354Z,-0.85
2023-02-26T19:44:56.343Z,-0.86
2023-02-26T19:47:24.702Z,-0.86
2023-02-26T19:49:52.460Z,-0.84
2023-02-26T19:52:20.270Z,-0.83
2023-02-26T19:54:49.332Z,-0.92
2023-02-26T19:57:17.112Z,-0.99
2023-02-26T19:59:45.045Z,-1.14
2023-02-26T20:02:12.797Z,-1.15
2023-02-26T20:04:40.487Z,-1.24
2023-02-26T20:07:08.490Z,-1.31
2023-02-26T20:09:36.310Z,-1.32
2023-02-26T20:12:06.005Z,-1.24
2023-02-26T20:14:33.957Z,-1.25
2023-02-26T20:17:02.057Z,-1.14
2023-02-26T20:19:29.803Z,-1.21
2023-02-26T20:21:57.718Z,-1.19
2023-02-26T20:24:26.390Z,-1.07
2023-02-26T20:26:54.157Z,-1.01
2023-02-26T20:29:23.555Z,-0.98
2023-02-26T20:31:51.761Z,-1.00
2023-02-26T20:34:22.243Z,-0.90
2023-02-26T20:36:50.669Z,-0.94
2023-02-26T20:39:19.388Z,-0.97
2023-02-26T20:41:47.208Z,-0.96
2023-02-26T20:44:14.944Z,-1.01
2023-02-26T20:46:44.116Z,-1.02
2023-02-26T20:49:12.239Z,-1.02
2023-02-26T20:51:41.011Z,-1.06
2023-02-26T20:54:09.075Z,-0.99
2023-02-26T20:56:37.181Z,-1.00
2023-02-26T20:59:05.439Z,-1.11
2023-02-26T21:01:36.256Z,-1.07
2023-02-26T21:04:07.841Z,-1.04
2023-02-26T21:06:36.771Z,-0.96
2023-02-26T21:09:06.658Z,-0.89
2023-02-26T21:11:36.641Z,-0.88
2023-02-26T21:14:06.674Z,-0.91
2023-02-26T21:16:34.640Z,-0.94
2023-02-26T21:19:03.741Z,-0.93
2023-02-26T21:21:33.318Z,-1.02
2023-02-26T21:24:01.232Z,-1.06
2023-02-26T21:26:29.000Z,-1.09
2023-02-26T21:28:56.743Z,-1.20
2023-02-26T21:31:24.570Z,-1.23
2023-02-26T21:33:52.385Z,-1.30
2023-02-26T21:36:21.338Z,-1.43
2023-02-26T21:38:51.051Z,-1.51
2023-02-26T21:41:18.833Z,-1.63
2023-02-26T21:43:47.708Z,-1.66
2023-02-26T21:46:15.469Z,-1.68
2023-02-26T21:48:46.148Z,-1.67
2023-02-26T21:51:15.446Z,-1.68
2023-02-26T21:53:45.250Z,-1.62
2023-02-26T21:56:14.394Z,-1.65
2023-02-26T21:58:42.522Z,-1.63
2023-02-26T22:01:10.708Z,-1.63
2023-02-26T22:03:39.611Z,-1.55
2023-02-26T22:06:08.079Z,-1.45
2023-02-26T22:08:36.338Z,-1.32
2023-02-26T22:11:04.101Z,-1.31
2023-02-26T22:13:33.517Z,-1.24
2023-02-26T22:16:01.483Z,-1.14
2023-02-26T22:18:29.225Z,-1.07
2023-02-26T22:20:56.974Z,-1.05
2023-02-26T22:23:24.730Z,-1.04
2023-02-26T22:25:52.461Z,-1.04
2023-02-26T22:28:20.212Z,-1.00
2023-02-26T22:30:49.362Z,-1.01
2023-02-26T22:33:17.122Z,-1.13
2023-02-26T22:35:45.490Z,-1.22
2023-02-26T22:38:13.232Z,-1.29
2023-02-26T22:40:41.177Z,-1.34
2023-02-26T22:43:09.108Z,-1.40
2023-02-26T22:45:36.984Z,-1.45
2023-02-26T22:48:06.468Z,-1.46
2023-02-26T22:50:34.257Z,-1.44
2023-02-26T22:53:02.508Z,-1.40
2023-02-26T22:55:30.569Z,-1.35
2023-02-26T22:57:58.641Z,-1.29
2023-02-26T23:00:27.720Z,-1.26
2023-02-26T23:02:55.492Z,-1.30
2023-02-26T23:05:24.592Z,-1.32
2023-02-26T23:07:52.346Z,-1.28
2023-02-26T23:10:21.410Z,-1.25
2023-02-26T23:12:49.742Z,-1.22
2023-02-26T23:15:17.689Z,-1.22
2023-02-26T23:17:45.559Z,-1.24
2023-02-26T23:20:14.916Z,-1.20
2023-02-26T23:22:44.581Z,-1.17
2023-02-26T23:25:13.055Z,-1.14
2023-02-26T23:27:41.533Z,-1.16
2023-02-26T23:30:10.702Z,-1.22
2023-02-26T23:32:38.618Z,-1.23
2023-02-26T23:35:07.471Z,-1.16
2023-02-26T23:37:35.189Z,-1.14
2023-02-26T23:40:05.282Z,-1.19
2023-02-26T23:42:33.017Z,-1.21
2023-02-26T23:45:00.736Z,-1.31
2023-02-26T23:47:28.468Z,-1.41
2023-02-26T23:49:56.173Z,-1.60
2023-02-26T23:52:25.614Z,-1.62
2023-02-26T23:54:54.396Z,-1.73
2023-02-26T23:57:23.652Z,-1.81
2023-02-26T23:59:51.726Z,-1.83
